sensor_id;sensor_type;location;lat;lon;timestamp;P1;durP1;ratioP1;P2;durP2;ratioP2
41253;SDS011;26987;59.928;30.306;2023-06-22T00:01:20;7.68;;;4.53;;
41253;SDS011;26987;59.928;30.306;2023-06-22T00:03:48;8.00;;;5.00;;
41253;SDS011;26987;59.928;30.306;2023-06-22T00:06:16;9.00;;;4.82;;
41253;SDS011;26987;59.928;30.306;2023-06-22T00:08:45;8.93;;;4.43;;
41253;SDS011;26987;59.928;30.306;2023-06-22T00:11:14;10.13;;;5.03;;
41253;SDS011;26987;59.928;30.306;2023-06-22T00:13:42;10.77;;;5.15;;
41253;SDS011;26987;59.928;30.306;2023-06-22T00:16:10;10.57;;;4.72;;
41253;SDS011;26987;59.928;30.306;2023-06-22T00:18:37;10.50;;;5.70;;
41253;SDS011;26987;59.928;30.306;2023-06-22T00:21:05;8.98;;;4.53;;
41253;SDS011;26987;59.928;30.306;2023-06-22T00:23:34;10.75;;;5.72;;
41253;SDS011;26987;59.928;30.306;2023-06-22T00:26:04;7.82;;;5.30;;
41253;SDS011;26987;59.928;30.306;2023-06-22T00:28:32;10.60;;;5.00;;
41253;SDS011;26987;59.928;30.306;2023-06-22T00:31:01;7.53;;;5.05;;
41253;SDS011;26987;59.928;30.306;2023-06-22T00:33:29;8.88;;;4.78;;
41253;SDS011;26987;59.928;30.306;2023-06-22T00:35:57;7.75;;;4.70;;
41253;SDS011;26987;59.928;30.306;2023-06-22T00:38:25;10.13;;;5.43;;
41253;SDS011;26987;59.928;30.306;2023-06-22T00:40:53;16.05;;;6.88;;
41253;SDS011;26987;59.928;30.306;2023-06-22T00:43:22;10.70;;;5.38;;
41253;SDS011;26987;59.928;30.306;2023-06-22T00:45:50;25.33;;;6.43;;
41253;SDS011;26987;59.928;30.306;2023-06-22T00:48:18;15.98;;;6.07;;
41253;SDS011;26987;59.928;30.306;2023-06-22T00:50:47;16.73;;;6.97;;
41253;SDS011;26987;59.928;30.306;2023-06-22T00:53:17;16.50;;;6.30;;
41253;SDS011;26987;59.928;30.306;2023-06-22T00:55:46;10.27;;;6.07;;
41253;SDS011;26987;59.928;30.306;2023-06-22T00:58:17;12.30;;;6.05;;
41253;SDS011;26987;59.928;30.306;2023-06-22T01:00:51;15.93;;;5.65;;
41253;SDS011;26987;59.928;30.306;2023-06-22T01:03:19;9.38;;;5.32;;
41253;SDS011;26987;59.928;30.306;2023-06-22T01:05:46;20.70;;;6.28;;
41253;SDS011;26987;59.928;30.306;2023-06-22T01:08:19;13.77;;;6.32;;
41253;SDS011;26987;59.928;30.306;2023-06-22T01:10:57;10.48;;;5.70;;
41253;SDS011;26987;59.928;30.306;2023-06-22T01:13:35;23.50;;;6.65;;
41253;SDS011;26987;59.928;30.306;2023-06-22T01:16:11;15.90;;;5.78;;
41253;SDS011;26987;59.928;30.306;2023-06-22T01:18:44;15.13;;;6.00;;
41253;SDS011;26987;59.928;30.306;2023-06-22T01:21:16;12.10;;;6.07;;
41253;SDS011;26987;59.928;30.306;2023-06-22T01:23:59;21.02;;;6.75;;
41253;SDS011;26987;59.928;30.306;2023-06-22T01:26:40;12.35;;;6.93;;
41253;SDS011;26987;59.928;30.306;2023-06-22T01:29:17;12.98;;;6.18;;
41253;SDS011;26987;59.928;30.306;2023-06-22T01:31:48;11.10;;;5.65;;
41253;SDS011;26987;59.928;30.306;2023-06-22T01:34:18;11.93;;;5.50;;
41253;SDS011;26987;59.928;30.306;2023-06-22T01:36:47;12.20;;;6.13;;
41253;SDS011;26987;59.928;30.306;2023-06-22T01:39:15;12.07;;;5.80;;
41253;SDS011;26987;59.928;30.306;2023-06-22T01:41:44;12.35;;;6.03;;
41253;SDS011;26987;59.928;30.306;2023-06-22T01:44:16;15.68;;;6.30;;
41253;SDS011;26987;59.928;30.306;2023-06-22T01:46:45;11.43;;;6.18;;
41253;SDS011;26987;59.928;30.306;2023-06-22T01:49:13;14.52;;;5.78;;
41253;SDS011;26987;59.928;30.306;2023-06-22T01:51:42;11.23;;;6.40;;
41253;SDS011;26987;59.928;30.306;2023-06-22T01:54:10;12.95;;;6.20;;
41253;SDS011;26987;59.928;30.306;2023-06-22T01:56:38;13.20;;;5.93;;
41253;SDS011;26987;59.928;30.306;2023-06-22T01:59:09;10.40;;;5.75;;
41253;SDS011;26987;59.928;30.306;2023-06-22T02:01:42;10.95;;;6.00;;
41253;SDS011;26987;59.928;30.306;2023-06-22T02:04:13;12.60;;;5.75;;
41253;SDS011;26987;59.928;30.306;2023-06-22T02:06:46;11.82;;;5.57;;
41253;SDS011;26987;59.928;30.306;2023-06-22T02:09:17;11.50;;;6.13;;
41253;SDS011;26987;59.928;30.306;2023-06-22T02:11:48;9.35;;;5.63;;
41253;SDS011;26987;59.928;30.306;2023-06-22T02:14:21;11.35;;;5.70;;
41253;SDS011;26987;59.928;30.306;2023-06-22T02:16:51;10.07;;;5.30;;
41253;SDS011;26987;59.928;30.306;2023-06-22T02:19:22;10.32;;;5.63;;
41253;SDS011;26987;59.928;30.306;2023-06-22T02:21:52;10.80;;;5.47;;
41253;SDS011;26987;59.928;30.306;2023-06-22T02:24:20;9.10;;;5.85;;
41253;SDS011;26987;59.928;30.306;2023-06-22T02:26:49;12.38;;;6.22;;
41253;SDS011;26987;59.928;30.306;2023-06-22T02:29:17;14.63;;;6.75;;
41253;SDS011;26987;59.928;30.306;2023-06-22T02:31:45;10.65;;;5.20;;
41253;SDS011;26987;59.928;30.306;2023-06-22T02:34:14;14.35;;;5.90;;
41253;SDS011;26987;59.928;30.306;2023-06-22T02:36:44;17.58;;;5.10;;
41253;SDS011;26987;59.928;30.306;2023-06-22T02:39:18;10.15;;;5.65;;
41253;SDS011;26987;59.928;30.306;2023-06-22T02:41:49;12.60;;;5.22;;
41253;SDS011;26987;59.928;30.306;2023-06-22T02:44:17;18.13;;;5.57;;
41253;SDS011;26987;59.928;30.306;2023-06-22T02:46:48;5.72;;;4.40;;
41253;SDS011;26987;59.928;30.306;2023-06-22T02:49:18;7.55;;;4.30;;
41253;SDS011;26987;59.928;30.306;2023-06-22T02:51:47;12.68;;;4.80;;
41253;SDS011;26987;59.928;30.306;2023-06-22T02:54:18;8.30;;;4.22;;
41253;SDS011;26987;59.928;30.306;2023-06-22T02:56:49;9.85;;;4.78;;
41253;SDS011;26987;59.928;30.306;2023-06-22T02:59:17;7.85;;;4.55;;
41253;SDS011;26987;59.928;30.306;2023-06-22T03:01:51;7.57;;;4.97;;
41253;SDS011;26987;59.928;30.306;2023-06-22T03:04:25;13.40;;;4.97;;
41253;SDS011;26987;59.928;30.306;2023-06-22T03:06:53;8.18;;;4.53;;
41253;SDS011;26987;59.928;30.306;2023-06-22T03:09:20;9.27;;;5.07;;
41253;SDS011;26987;59.928;30.306;2023-06-22T03:11:48;6.32;;;4.80;;
41253;SDS011;26987;59.928;30.306;2023-06-22T03:14:17;6.90;;;4.53;;
41253;SDS011;26987;59.928;30.306;2023-06-22T03:16:45;8.85;;;4.60;;
41253;SDS011;26987;59.928;30.306;2023-06-22T03:19:13;9.80;;;4.78;;
41253;SDS011;26987;59.928;30.306;2023-06-22T03:21:42;6.38;;;4.65;;
41253;SDS011;26987;59.928;30.306;2023-06-22T03:24:10;10.63;;;4.50;;
41253;SDS011;26987;59.928;30.306;2023-06-22T03:26:38;8.05;;;4.57;;
41253;SDS011;26987;59.928;30.306;2023-06-22T03:29:06;8.90;;;4.65;;
41253;SDS011;26987;59.928;30.306;2023-06-22T03:31:34;7.43;;;4.35;;
41253;SDS011;26987;59.928;30.306;2023-06-22T03:34:02;5.32;;;4.35;;
41253;SDS011;26987;59.928;30.306;2023-06-22T03:36:30;7.63;;;4.30;;
41253;SDS011;26987;59.928;30.306;2023-06-22T03:39:00;6.93;;;4.50;;
41253;SDS011;26987;59.928;30.306;2023-06-22T03:41:28;7.93;;;4.72;;
41253;SDS011;26987;59.928;30.306;2023-06-22T03:43:56;5.80;;;4.15;;
41253;SDS011;26987;59.928;30.306;2023-06-22T03:46:24;5.40;;;4.68;;
41253;SDS011;26987;59.928;30.306;2023-06-22T03:48:52;11.73;;;4.85;;
41253;SDS011;26987;59.928;30.306;2023-06-22T03:51:20;7.05;;;5.43;;
41253;SDS011;26987;59.928;30.306;2023-06-22T03:53:48;8.20;;;3.97;;
41253;SDS011;26987;59.928;30.306;2023-06-22T03:56:17;9.05;;;4.25;;
41253;SDS011;26987;59.928;30.306;2023-06-22T03:58:46;6.30;;;3.90;;
41253;SDS011;26987;59.928;30.306;2023-06-22T04:01:14;15.38;;;4.20;;
41253;SDS011;26987;59.928;30.306;2023-06-22T04:03:43;5.35;;;4.68;;
41253;SDS011;26987;59.928;30.306;2023-06-22T04:06:10;6.93;;;4.70;;
41253;SDS011;26987;59.928;30.306;2023-06-22T04:08:38;6.55;;;4.38;;
41253;SDS011;26987;59.928;30.306;2023-06-22T04:11:06;10.52;;;4.90;;
41253;SDS011;26987;59.928;30.306;2023-06-22T04:13:36;7.40;;;4.47;;
41253;SDS011;26987;59.928;30.306;2023-06-22T04:16:04;6.13;;;4.35;;
41253;SDS011;26987;59.928;30.306;2023-06-22T04:18:32;6.13;;;4.57;;
41253;SDS011;26987;59.928;30.306;2023-06-22T04:20:59;7.25;;;4.68;;
41253;SDS011;26987;59.928;30.306;2023-06-22T04:23:27;6.55;;;4.32;;
41253;SDS011;26987;59.928;30.306;2023-06-22T04:25:55;6.68;;;5.22;;
41253;SDS011;26987;59.928;30.306;2023-06-22T04:28:23;12.50;;;4.82;;
41253;SDS011;26987;59.928;30.306;2023-06-22T04:30:53;7.88;;;4.75;;
41253;SDS011;26987;59.928;30.306;2023-06-22T04:33:24;7.07;;;4.72;;
41253;SDS011;26987;59.928;30.306;2023-06-22T04:35:52;6.25;;;4.50;;
41253;SDS011;26987;59.928;30.306;2023-06-22T04:38:19;12.18;;;6.00;;
41253;SDS011;26987;59.928;30.306;2023-06-22T04:40:48;13.27;;;6.15;;
41253;SDS011;26987;59.928;30.306;2023-06-22T04:43:16;11.82;;;5.28;;
41253;SDS011;26987;59.928;30.306;2023-06-22T04:45:44;12.70;;;5.95;;
41253;SDS011;26987;59.928;30.306;2023-06-22T04:48:13;10.35;;;6.28;;
41253;SDS011;26987;59.928;30.306;2023-06-22T04:50:42;11.43;;;5.57;;
41253;SDS011;26987;59.928;30.306;2023-06-22T04:53:10;13.38;;;6.72;;
41253;SDS011;26987;59.928;30.306;2023-06-22T04:55:38;11.20;;;5.88;;
41253;SDS011;26987;59.928;30.306;2023-06-22T04:58:07;11.73;;;5.78;;
41253;SDS011;26987;59.928;30.306;2023-06-22T05:00:39;16.60;;;6.63;;
41253;SDS011;26987;59.928;30.306;2023-06-22T05:03:06;9.82;;;6.53;;
41253;SDS011;26987;59.928;30.306;2023-06-22T05:05:38;16.38;;;6.50;;
41253;SDS011;26987;59.928;30.306;2023-06-22T05:08:06;14.95;;;6.43;;
41253;SDS011;26987;59.928;30.306;2023-06-22T05:10:34;12.57;;;6.35;;
41253;SDS011;26987;59.928;30.306;2023-06-22T05:13:01;14.23;;;6.82;;
41253;SDS011;26987;59.928;30.306;2023-06-22T05:15:29;16.83;;;6.82;;
41253;SDS011;26987;59.928;30.306;2023-06-22T05:18:02;13.95;;;7.50;;
41253;SDS011;26987;59.928;30.306;2023-06-22T05:20:31;11.52;;;7.13;;
41253;SDS011;26987;59.928;30.306;2023-06-22T05:23:03;14.60;;;7.07;;
41253;SDS011;26987;59.928;30.306;2023-06-22T05:25:31;16.50;;;6.95;;
41253;SDS011;26987;59.928;30.306;2023-06-22T05:27:59;14.30;;;6.82;;
41253;SDS011;26987;59.928;30.306;2023-06-22T05:30:27;19.52;;;6.57;;
41253;SDS011;26987;59.928;30.306;2023-06-22T05:32:55;11.82;;;6.43;;
41253;SDS011;26987;59.928;30.306;2023-06-22T05:35:23;16.23;;;7.00;;
41253;SDS011;26987;59.928;30.306;2023-06-22T05:37:51;14.00;;;6.47;;
41253;SDS011;26987;59.928;30.306;2023-06-22T05:40:20;13.82;;;6.65;;
41253;SDS011;26987;59.928;30.306;2023-06-22T05:42:48;15.32;;;7.28;;
41253;SDS011;26987;59.928;30.306;2023-06-22T05:45:16;16.83;;;6.25;;
41253;SDS011;26987;59.928;30.306;2023-06-22T05:47:43;14.85;;;6.28;;
41253;SDS011;26987;59.928;30.306;2023-06-22T05:50:11;16.38;;;6.78;;
41253;SDS011;26987;59.928;30.306;2023-06-22T05:52:39;14.20;;;6.75;;
41253;SDS011;26987;59.928;30.306;2023-06-22T05:55:07;12.20;;;6.13;;
41253;SDS011;26987;59.928;30.306;2023-06-22T05:57:37;15.27;;;6.97;;
41253;SDS011;26987;59.928;30.306;2023-06-22T06:00:05;12.02;;;6.55;;
41253;SDS011;26987;59.928;30.306;2023-06-22T06:02:37;13.80;;;7.28;;
41253;SDS011;26987;59.928;30.306;2023-06-22T06:05:10;29.50;;;8.07;;
41253;SDS011;26987;59.928;30.306;2023-06-22T06:07:40;18.83;;;7.30;;
41253;SDS011;26987;59.928;30.306;2023-06-22T06:10:08;17.92;;;7.57;;
41253;SDS011;26987;59.928;30.306;2023-06-22T06:12:38;20.42;;;8.02;;
41253;SDS011;26987;59.928;30.306;2023-06-22T06:15:06;25.15;;;7.78;;
41253;SDS011;26987;59.928;30.306;2023-06-22T06:17:34;16.60;;;7.25;;
41253;SDS011;26987;59.928;30.306;2023-06-22T06:20:02;11.38;;;6.78;;
41253;SDS011;26987;59.928;30.306;2023-06-22T06:22:33;17.48;;;7.13;;
41253;SDS011;26987;59.928;30.306;2023-06-22T06:25:00;16.55;;;6.85;;
41253;SDS011;26987;59.928;30.306;2023-06-22T06:27:28;13.55;;;6.05;;
41253;SDS011;26987;59.928;30.306;2023-06-22T06:29:58;15.13;;;6.75;;
41253;SDS011;26987;59.928;30.306;2023-06-22T06:32:26;12.05;;;6.65;;
41253;SDS011;26987;59.928;30.306;2023-06-22T06:34:53;14.00;;;6.68;;
41253;SDS011;26987;59.928;30.306;2023-06-22T06:37:21;15.90;;;6.85;;
41253;SDS011;26987;59.928;30.306;2023-06-22T06:39:49;17.00;;;7.22;;
41253;SDS011;26987;59.928;30.306;2023-06-22T06:42:17;22.42;;;6.85;;
41253;SDS011;26987;59.928;30.306;2023-06-22T06:44:45;12.25;;;7.03;;
41253;SDS011;26987;59.928;30.306;2023-06-22T06:47:15;11.55;;;6.50;;
41253;SDS011;26987;59.928;30.306;2023-06-22T06:49:42;13.00;;;7.47;;
41253;SDS011;26987;59.928;30.306;2023-06-22T06:52:10;12.65;;;8.10;;
41253;SDS011;26987;59.928;30.306;2023-06-22T06:54:38;18.85;;;7.75;;
41253;SDS011;26987;59.928;30.306;2023-06-22T06:57:08;19.13;;;8.35;;
41253;SDS011;26987;59.928;30.306;2023-06-22T06:59:36;16.95;;;7.15;;
41253;SDS011;26987;59.928;30.306;2023-06-22T07:02:04;20.77;;;6.80;;
41253;SDS011;26987;59.928;30.306;2023-06-22T07:04:33;12.52;;;6.85;;
41253;SDS011;26987;59.928;30.306;2023-06-22T07:07:01;17.17;;;7.00;;
41253;SDS011;26987;59.928;30.306;2023-06-22T07:09:30;18.52;;;6.50;;
41253;SDS011;26987;59.928;30.306;2023-06-22T07:11:57;15.65;;;7.68;;
41253;SDS011;26987;59.928;30.306;2023-06-22T07:14:25;19.92;;;6.63;;
41253;SDS011;26987;59.928;30.306;2023-06-22T07:16:53;15.25;;;6.00;;
41253;SDS011;26987;59.928;30.306;2023-06-22T07:19:24;19.02;;;6.85;;
41253;SDS011;26987;59.928;30.306;2023-06-22T07:21:54;10.43;;;6.35;;
41253;SDS011;26987;59.928;30.306;2023-06-22T07:24:22;14.98;;;6.07;;
41253;SDS011;26987;59.928;30.306;2023-06-22T07:26:50;11.32;;;6.28;;
41253;SDS011;26987;59.928;30.306;2023-06-22T07:29:18;36.95;;;7.53;;
41253;SDS011;26987;59.928;30.306;2023-06-22T07:31:47;15.52;;;6.57;;
41253;SDS011;26987;59.928;30.306;2023-06-22T07:34:17;22.80;;;7.97;;
41253;SDS011;26987;59.928;30.306;2023-06-22T07:36:45;17.20;;;6.60;;
41253;SDS011;26987;59.928;30.306;2023-06-22T07:39:14;20.83;;;6.75;;
41253;SDS011;26987;59.928;30.306;2023-06-22T07:41:42;15.32;;;6.38;;
41253;SDS011;26987;59.928;30.306;2023-06-22T07:44:10;14.15;;;7.10;;
41253;SDS011;26987;59.928;30.306;2023-06-22T07:46:38;14.68;;;7.55;;
41253;SDS011;26987;59.928;30.306;2023-06-22T07:49:05;18.98;;;6.35;;
41253;SDS011;26987;59.928;30.306;2023-06-22T07:51:34;16.63;;;6.82;;
41253;SDS011;26987;59.928;30.306;2023-06-22T07:54:02;18.27;;;7.07;;
41253;SDS011;26987;59.928;30.306;2023-06-22T07:56:31;13.15;;;7.15;;
41253;SDS011;26987;59.928;30.306;2023-06-22T07:58:59;16.08;;;6.80;;
41253;SDS011;26987;59.928;30.306;2023-06-22T08:01:29;13.70;;;7.10;;
41253;SDS011;26987;59.928;30.306;2023-06-22T08:03:57;16.10;;;7.50;;
41253;SDS011;26987;59.928;30.306;2023-06-22T08:06:25;11.07;;;6.47;;
41253;SDS011;26987;59.928;30.306;2023-06-22T08:08:53;14.63;;;6.38;;
41253;SDS011;26987;59.928;30.306;2023-06-22T08:11:23;13.30;;;5.78;;
41253;SDS011;26987;59.928;30.306;2023-06-22T08:13:52;12.40;;;6.45;;
41253;SDS011;26987;59.928;30.306;2023-06-22T08:16:21;15.48;;;6.65;;
41253;SDS011;26987;59.928;30.306;2023-06-22T08:18:49;11.73;;;7.05;;
41253;SDS011;26987;59.928;30.306;2023-06-22T08:21:17;14.18;;;6.75;;
41253;SDS011;26987;59.928;30.306;2023-06-22T08:23:45;14.88;;;6.40;;
41253;SDS011;26987;59.928;30.306;2023-06-22T08:26:12;14.45;;;6.80;;
41253;SDS011;26987;59.928;30.306;2023-06-22T08:28:41;11.85;;;5.95;;
41253;SDS011;26987;59.928;30.306;2023-06-22T08:31:10;13.35;;;5.95;;
41253;SDS011;26987;59.928;30.306;2023-06-22T08:33:39;12.52;;;6.13;;
41253;SDS011;26987;59.928;30.306;2023-06-22T08:36:09;13.85;;;6.53;;
41253;SDS011;26987;59.928;30.306;2023-06-22T08:38:39;17.02;;;6.88;;
41253;SDS011;26987;59.928;30.306;2023-06-22T08:41:06;12.32;;;6.97;;
41253;SDS011;26987;59.928;30.306;2023-06-22T08:43:34;21.73;;;7.18;;
41253;SDS011;26987;59.928;30.306;2023-06-22T08:46:02;17.27;;;6.40;;
41253;SDS011;26987;59.928;30.306;2023-06-22T08:48:31;8.30;;;6.00;;
41253;SDS011;26987;59.928;30.306;2023-06-22T08:50:59;13.75;;;6.35;;
41253;SDS011;26987;59.928;30.306;2023-06-22T08:53:27;13.13;;;6.00;;
41253;SDS011;26987;59.928;30.306;2023-06-22T08:55:55;15.13;;;5.93;;
41253;SDS011;26987;59.928;30.306;2023-06-22T08:58:23;15.40;;;5.82;;
41253;SDS011;26987;59.928;30.306;2023-06-22T09:00:50;11.80;;;6.32;;
41253;SDS011;26987;59.928;30.306;2023-06-22T09:03:18;11.07;;;5.82;;
41253;SDS011;26987;59.928;30.306;2023-06-22T09:05:48;12.45;;;5.93;;
41253;SDS011;26987;59.928;30.306;2023-06-22T09:08:16;15.98;;;7.43;;
41253;SDS011;26987;59.928;30.306;2023-06-22T09:10:43;12.88;;;6.80;;
41253;SDS011;26987;59.928;30.306;2023-06-22T09:13:11;10.15;;;5.60;;
41253;SDS011;26987;59.928;30.306;2023-06-22T09:15:39;13.02;;;6.20;;
41253;SDS011;26987;59.928;30.306;2023-06-22T09:18:09;15.13;;;6.50;;
41253;SDS011;26987;59.928;30.306;2023-06-22T09:20:37;12.15;;;6.88;;
41253;SDS011;26987;59.928;30.306;2023-06-22T09:23:07;11.70;;;6.10;;
41253;SDS011;26987;59.928;30.306;2023-06-22T09:25:35;14.20;;;6.55;;
41253;SDS011;26987;59.928;30.306;2023-06-22T09:28:03;14.00;;;6.28;;
41253;SDS011;26987;59.928;30.306;2023-06-22T09:30:31;17.67;;;7.43;;
41253;SDS011;26987;59.928;30.306;2023-06-22T09:32:58;14.55;;;6.35;;
41253;SDS011;26987;59.928;30.306;2023-06-22T09:35:27;13.48;;;6.53;;
41253;SDS011;26987;59.928;30.306;2023-06-22T09:37:55;16.77;;;7.38;;
41253;SDS011;26987;59.928;30.306;2023-06-22T09:40:24;12.65;;;6.28;;
41253;SDS011;26987;59.928;30.306;2023-06-22T09:42:51;19.85;;;6.72;;
41253;SDS011;26987;59.928;30.306;2023-06-22T09:45:19;13.05;;;6.35;;
41253;SDS011;26987;59.928;30.306;2023-06-22T09:47:47;13.38;;;6.00;;
41253;SDS011;26987;59.928;30.306;2023-06-22T09:50:15;10.05;;;6.40;;
41253;SDS011;26987;59.928;30.306;2023-06-22T09:52:43;12.63;;;6.88;;
41253;SDS011;26987;59.928;30.306;2023-06-22T09:55:17;18.20;;;7.95;;
41253;SDS011;26987;59.928;30.306;2023-06-22T09:57:46;15.32;;;6.53;;
41253;SDS011;26987;59.928;30.306;2023-06-22T10:00:15;11.75;;;6.32;;
41253;SDS011;26987;59.928;30.306;2023-06-22T10:02:44;12.75;;;6.38;;
41253;SDS011;26987;59.928;30.306;2023-06-22T10:05:14;15.02;;;6.30;;
41253;SDS011;26987;59.928;30.306;2023-06-22T10:07:42;9.77;;;5.95;;
41253;SDS011;26987;59.928;30.306;2023-06-22T10:10:10;20.50;;;7.03;;
41253;SDS011;26987;59.928;30.306;2023-06-22T10:12:41;12.23;;;5.88;;
41253;SDS011;26987;59.928;30.306;2023-06-22T10:15:11;13.73;;;6.68;;
41253;SDS011;26987;59.928;30.306;2023-06-22T10:17:39;13.43;;;6.60;;
41253;SDS011;26987;59.928;30.306;2023-06-22T10:20:07;25.48;;;7.75;;
41253;SDS011;26987;59.928;30.306;2023-06-22T10:22:39;15.77;;;7.03;;
41253;SDS011;26987;59.928;30.306;2023-06-22T10:25:07;10.93;;;6.65;;
41253;SDS011;26987;59.928;30.306;2023-06-22T10:27:36;11.00;;;6.53;;
41253;SDS011;26987;59.928;30.306;2023-06-22T10:30:06;14.85;;;7.07;;
41253;SDS011;26987;59.928;30.306;2023-06-22T10:32:37;30.27;;;7.80;;
41253;SDS011;26987;59.928;30.306;2023-06-22T10:35:06;20.42;;;7.95;;
41253;SDS011;26987;59.928;30.306;2023-06-22T10:37:36;18.83;;;6.93;;
41253;SDS011;26987;59.928;30.306;2023-06-22T10:40:04;22.45;;;7.65;;
41253;SDS011;26987;59.928;30.306;2023-06-22T10:42:34;12.63;;;6.60;;
41253;SDS011;26987;59.928;30.306;2023-06-22T10:45:01;15.15;;;7.32;;
41253;SDS011;26987;59.928;30.306;2023-06-22T10:47:30;37.50;;;9.50;;
41253;SDS011;26987;59.928;30.306;2023-06-22T10:49:59;33.33;;;9.43;;
41253;SDS011;26987;59.928;30.306;2023-06-22T10:52:27;28.42;;;9.88;;
41253;SDS011;26987;59.928;30.306;2023-06-22T10:54:54;17.67;;;7.70;;
41253;SDS011;26987;59.928;30.306;2023-06-22T10:57:22;18.10;;;7.72;;
41253;SDS011;26987;59.928;30.306;2023-06-22T10:59:50;17.55;;;7.32;;
41253;SDS011;26987;59.928;30.306;2023-06-22T11:02:18;15.35;;;7.60;;
41253;SDS011;26987;59.928;30.306;2023-06-22T11:04:46;17.73;;;8.32;;
41253;SDS011;26987;59.928;30.306;2023-06-22T11:07:16;18.58;;;7.53;;
41253;SDS011;26987;59.928;30.306;2023-06-22T11:09:44;25.70;;;7.57;;
41253;SDS011;26987;59.928;30.306;2023-06-22T11:12:11;14.48;;;6.38;;
41253;SDS011;26987;59.928;30.306;2023-06-22T11:14:39;12.05;;;7.63;;
41253;SDS011;26987;59.928;30.306;2023-06-22T11:17:07;11.50;;;6.88;;
41253;SDS011;26987;59.928;30.306;2023-06-22T11:19:35;12.18;;;6.22;;
41253;SDS011;26987;59.928;30.306;2023-06-22T11:22:03;13.98;;;7.13;;
41253;SDS011;26987;59.928;30.306;2023-06-22T11:24:33;13.82;;;6.95;;
41253;SDS011;26987;59.928;30.306;2023-06-22T11:27:01;10.95;;;6.95;;
41253;SDS011;26987;59.928;30.306;2023-06-22T11:29:28;13.80;;;6.85;;
41253;SDS011;26987;59.928;30.306;2023-06-22T11:31:56;10.40;;;6.28;;
41253;SDS011;26987;59.928;30.306;2023-06-22T11:34:24;11.68;;;5.75;;
41253;SDS011;26987;59.928;30.306;2023-06-22T11:36:52;11.40;;;6.05;;
41253;SDS011;26987;59.928;30.306;2023-06-22T11:39:20;13.25;;;6.03;;
41253;SDS011;26987;59.928;30.306;2023-06-22T11:41:49;10.35;;;5.40;;
41253;SDS011;26987;59.928;30.306;2023-06-22T11:44:17;9.60;;;5.68;;
41253;SDS011;26987;59.928;30.306;2023-06-22T11:46:45;12.05;;;6.97;;
41253;SDS011;26987;59.928;30.306;2023-06-22T11:49:14;10.27;;;6.20;;
41253;SDS011;26987;59.928;30.306;2023-06-22T11:51:42;11.27;;;6.75;;
41253;SDS011;26987;59.928;30.306;2023-06-22T11:54:10;13.02;;;6.35;;
41253;SDS011;26987;59.928;30.306;2023-06-22T11:56:37;15.60;;;8.38;;
41253;SDS011;26987;59.928;30.306;2023-06-22T11:59:07;15.00;;;8.82;;
41253;SDS011;26987;59.928;30.306;2023-06-22T12:01:34;17.45;;;8.05;;
41253;SDS011;26987;59.928;30.306;2023-06-22T12:04:02;14.25;;;9.10;;
41253;SDS011;26987;59.928;30.306;2023-06-22T12:06:31;11.43;;;6.97;;
41253;SDS011;26987;59.928;30.306;2023-06-22T12:09:01;17.58;;;7.93;;
41253;SDS011;26987;59.928;30.306;2023-06-22T12:11:30;17.30;;;7.72;;
41253;SDS011;26987;59.928;30.306;2023-06-22T12:13:58;16.27;;;7.43;;
41253;SDS011;26987;59.928;30.306;2023-06-22T12:16:29;10.73;;;6.60;;
41253;SDS011;26987;59.928;30.306;2023-06-22T12:18:57;15.02;;;7.03;;
41253;SDS011;26987;59.928;30.306;2023-06-22T12:21:25;11.75;;;6.32;;
41253;SDS011;26987;59.928;30.306;2023-06-22T12:23:53;12.05;;;6.70;;
41253;SDS011;26987;59.928;30.306;2023-06-22T12:26:21;12.40;;;6.60;;
41253;SDS011;26987;59.928;30.306;2023-06-22T12:28:49;12.48;;;6.78;;
41253;SDS011;26987;59.928;30.306;2023-06-22T12:31:16;11.75;;;5.95;;
41253;SDS011;26987;59.928;30.306;2023-06-22T12:33:46;12.30;;;6.22;;
41253;SDS011;26987;59.928;30.306;2023-06-22T12:36:13;11.95;;;6.30;;
41253;SDS011;26987;59.928;30.306;2023-06-22T12:38:42;10.65;;;6.45;;
41253;SDS011;26987;59.928;30.306;2023-06-22T12:41:10;8.45;;;6.13;;
41253;SDS011;26987;59.928;30.306;2023-06-22T12:43:38;10.27;;;5.80;;
41253;SDS011;26987;59.928;30.306;2023-06-22T12:46:06;9.25;;;5.50;;
41253;SDS011;26987;59.928;30.306;2023-06-22T12:48:33;7.47;;;5.25;;
41253;SDS011;26987;59.928;30.306;2023-06-22T12:51:08;12.73;;;5.93;;
41253;SDS011;26987;59.928;30.306;2023-06-22T12:53:36;16.17;;;5.88;;
41253;SDS011;26987;59.928;30.306;2023-06-22T12:56:04;13.95;;;6.18;;
41253;SDS011;26987;59.928;30.306;2023-06-22T12:58:32;11.13;;;6.25;;
41253;SDS011;26987;59.928;30.306;2023-06-22T13:01:00;29.20;;;7.43;;
41253;SDS011;26987;59.928;30.306;2023-06-22T13:03:27;12.30;;;7.32;;
41253;SDS011;26987;59.928;30.306;2023-06-22T13:05:55;15.00;;;7.20;;
41253;SDS011;26987;59.928;30.306;2023-06-22T13:08:25;18.23;;;7.35;;
41253;SDS011;26987;59.928;30.306;2023-06-22T13:10:52;9.98;;;7.35;;
41253;SDS011;26987;59.928;30.306;2023-06-22T13:13:23;13.80;;;8.50;;
41253;SDS011;26987;59.928;30.306;2023-06-22T13:15:51;20.38;;;8.35;;
41253;SDS011;26987;59.928;30.306;2023-06-22T13:18:20;17.75;;;8.45;;
41253;SDS011;26987;59.928;30.306;2023-06-22T13:20:47;12.52;;;8.90;;
41253;SDS011;26987;59.928;30.306;2023-06-22T13:23:15;14.30;;;9.15;;
41253;SDS011;26987;59.928;30.306;2023-06-22T13:25:44;12.63;;;9.80;;
41253;SDS011;26987;59.928;30.306;2023-06-22T13:28:12;19.98;;;10.40;;
41253;SDS011;26987;59.928;30.306;2023-06-22T13:30:41;16.92;;;9.65;;
41253;SDS011;26987;59.928;30.306;2023-06-22T13:33:12;13.93;;;10.15;;
41253;SDS011;26987;59.928;30.306;2023-06-22T13:35:40;19.27;;;8.82;;
41253;SDS011;26987;59.928;30.306;2023-06-22T13:38:08;10.98;;;8.98;;
41253;SDS011;26987;59.928;30.306;2023-06-22T13:40:37;12.32;;;9.57;;
41253;SDS011;26987;59.928;30.306;2023-06-22T13:43:06;14.90;;;10.23;;
41253;SDS011;26987;59.928;30.306;2023-06-22T13:45:34;20.67;;;10.48;;
41253;SDS011;26987;59.928;30.306;2023-06-22T13:48:02;15.80;;;9.48;;
41253;SDS011;26987;59.928;30.306;2023-06-22T13:50:30;15.32;;;10.85;;
41253;SDS011;26987;59.928;30.306;2023-06-22T13:52:58;20.15;;;11.00;;
41253;SDS011;26987;59.928;30.306;2023-06-22T13:55:26;12.77;;;10.77;;
41253;SDS011;26987;59.928;30.306;2023-06-22T13:57:53;16.45;;;11.18;;
41253;SDS011;26987;59.928;30.306;2023-06-22T14:00:23;16.05;;;11.15;;
41253;SDS011;26987;59.928;30.306;2023-06-22T14:02:50;15.98;;;11.63;;
41253;SDS011;26987;59.928;30.306;2023-06-22T14:05:18;20.25;;;11.70;;
41253;SDS011;26987;59.928;30.306;2023-06-22T14:07:46;17.17;;;10.82;;
41253;SDS011;26987;59.928;30.306;2023-06-22T14:10:14;14.52;;;9.15;;
41253;SDS011;26987;59.928;30.306;2023-06-22T14:12:42;11.82;;;10.07;;
41253;SDS011;26987;59.928;30.306;2023-06-22T14:15:10;15.38;;;8.80;;
41253;SDS011;26987;59.928;30.306;2023-06-22T14:17:39;12.38;;;8.98;;
41253;SDS011;26987;59.928;30.306;2023-06-22T14:20:08;15.45;;;9.13;;
41253;SDS011;26987;59.928;30.306;2023-06-22T14:22:36;11.70;;;9.10;;
41253;SDS011;26987;59.928;30.306;2023-06-22T14:25:05;14.27;;;8.35;;
41253;SDS011;26987;59.928;30.306;2023-06-22T14:27:33;14.73;;;9.00;;
41253;SDS011;26987;59.928;30.306;2023-06-22T14:30:01;12.07;;;7.63;;
41253;SDS011;26987;59.928;30.306;2023-06-22T14:32:29;11.10;;;8.80;;